Time;durP1;ratioP1;P1;durP2;ratioP2;P2;SDS_P1;SDS_P2;PMS_P1;PMS_P2;Temp;Humidity;BMP_temperature;BMP_pressure;BME280_temperature;BME280_humidity;BME280_pressure;Samples;Min_cycle;Max_cycle;Signal;HPM_P1;HPM_P2
2023/08/01 00:00:56;;;;;;;4.73;4.40;;;;;;;22.09;73.35;94532.03;5093549;28;20447;-77
2023/08/01 00:03:22;;;;;;;3.30;3.10;;;;;;;21.97;73.88;94537.16;5093861;28;20487;-77
2023/08/01 00:05:49;;;;;;;3.33;3.13;;;;;;;21.90;74.41;94533.66;5041454;28;20456;-77
2023/08/01 00:08:16;;;;;;;4.40;4.10;;;;;;;21.85;74.59;94525.47;5093969;28;20448;-76
2023/08/01 00:10:43;;;;;;;3.80;3.50;;;;;;;21.81;74.93;94532.25;5093659;28;20446;-77
2023/08/01 00:13:11;;;;;;;4.20;3.90;;;;;;;21.78;74.83;94530.00;5093250;28;20441;-77
2023/08/01 00:15:39;;;;;;;5.67;4.07;;;;;;;21.71;75.04;94526.53;5057998;28;20521;-77
2023/08/01 00:18:06;;;;;;;3.63;3.40;;;;;;;21.73;75.14;94532.47;5093182;28;20445;-77
2023/08/01 00:20:32;;;;;;;5.40;4.90;;;;;;;21.72;75.00;94529.00;5093571;28;20452;-77
2023/08/01 00:22:59;;;;;;;4.03;3.73;;;;;;;21.74;75.18;94531.44;5093633;28;20437;-77
2023/08/01 00:25:26;;;;;;;6.93;3.80;;;;;;;21.69;75.13;94529.41;5093443;28;20777;-77
2023/08/01 00:27:53;;;;;;;4.00;3.57;;;;;;;21.65;75.33;94515.63;5093641;28;20450;-77
2023/08/01 00:30:21;;;;;;;4.83;4.40;;;;;;;21.72;75.04;94529.00;5093340;28;20452;-78
2023/08/01 00:32:48;;;;;;;4.30;3.93;;;;;;;21.69;74.63;94520.56;5093663;28;20450;-77
2023/08/01 00:35:16;;;;;;;4.80;4.13;;;;;;;21.68;74.67;94526.91;5093718;28;20801;-77
2023/08/01 00:37:43;;;;;;;4.57;4.07;;;;;;;21.69;74.71;94534.75;5093189;28;20532;-77
2023/08/01 00:40:10;;;;;;;4.70;4.20;;;;;;;21.67;74.87;94525.28;5093200;28;20458;-77
2023/08/01 00:42:37;;;;;;;4.27;3.87;;;;;;;21.67;74.67;94535.94;5093017;28;20449;-77
2023/08/01 00:45:05;;;;;;;4.17;3.87;;;;;;;21.65;74.71;94534.31;5092679;28;20952;-77
2023/08/01 00:47:33;;;;;;;4.40;4.00;;;;;;;21.58;75.31;94530.84;5057587;28;20442;-77
2023/08/01 00:50:01;;;;;;;3.97;3.67;;;;;;;21.58;75.08;94527.34;5093168;28;20835;-77
2023/08/01 00:52:28;;;;;;;3.70;3.40;;;;;;;21.52;75.29;94528.16;5093387;28;20809;-77
2023/08/01 00:54:55;;;;;;;4.57;4.20;;;;;;;21.46;75.81;94524.47;5093591;28;20485;-77
2023/08/01 00:57:22;;;;;;;4.47;4.13;;;;;;;21.46;75.85;94527.16;5094979;28;20444;-76
2023/08/01 00:59:49;;;;;;;4.90;3.90;;;;;;;21.49;75.51;94520.56;5096943;28;20447;-77
2023/08/01 01:02:16;;;;;;;5.40;4.87;;;;;;;21.44;75.73;94521.19;5096988;28;20443;-77
2023/08/01 01:04:44;;;;;;;4.87;3.87;;;;;;;21.25;76.14;94500.66;5097246;28;20442;-77
2023/08/01 01:07:13;;;;;;;5.03;4.53;;;;;;;21.27;76.36;94517.28;5097050;28;20461;-77
2023/08/01 01:09:39;;;;;;;4.27;3.97;;;;;;;21.30;76.33;94504.34;5096985;28;20455;-77
2023/08/01 01:12:07;;;;;;;6.30;3.97;;;;;;;21.30;76.62;94507.00;5097167;28;20444;-77
2023/08/01 01:14:34;;;;;;;3.90;3.60;;;;;;;21.27;76.56;94511.94;5096881;28;21046;-77
2023/08/01 01:17:00;;;;;;;4.20;3.80;;;;;;;21.21;76.89;94499.41;5096967;28;20433;-77
2023/08/01 01:19:27;;;;;;;4.33;3.97;;;;;;;21.22;76.88;94509.03;5096614;28;20809;-77
2023/08/01 01:21:57;;;;;;;6.87;4.17;;;;;;;21.22;76.67;94509.03;5096917;28;20904;-77
2023/08/01 01:24:24;;;;;;;4.00;3.73;;;;;;;21.20;77.12;94508.44;5096472;28;20928;-77
2023/08/01 01:26:52;;;;;;;4.23;3.93;;;;;;;21.15;77.47;94502.88;5096697;28;20437;-78
2023/08/01 01:29:20;;;;;;;4.60;4.20;;;;;;;21.12;77.74;94500.63;5097045;28;20452;-77
2023/08/01 01:31:49;;;;;;;4.50;4.10;;;;;;;21.04;77.97;94493.63;5096854;28;20449;-78
2023/08/01 01:34:16;;;;;;;4.37;3.97;;;;;;;21.10;78.00;94489.31;5097028;28;20498;-77
2023/08/01 01:36:43;;;;;;;4.50;4.10;;;;;;;21.14;77.50;94487.91;5096507;28;20821;-77
2023/08/01 01:39:11;;;;;;;5.40;4.23;;;;;;;21.17;77.39;94498.16;5096792;28;20452;-77
2023/08/01 01:41:38;;;;;;;4.47;4.17;;;;;;;21.17;77.48;94492.84;5096246;28;20439;-77
2023/08/01 01:44:05;;;;;;;4.43;3.97;;;;;;;21.19;77.36;94499.59;5096622;28;20448;-77
2023/08/01 01:46:31;;;;;;;5.10;4.60;;;;;;;21.21;77.19;94488.72;5096196;28;20459;-77
2023/08/01 01:48:58;;;;;;;4.50;4.20;;;;;;;21.23;76.98;94492.00;5096901;28;20474;-77
2023/08/01 01:51:27;;;;;;;5.17;4.77;;;;;;;21.23;76.84;94487.53;5095953;28;20468;-76
2023/08/01 01:53:54;;;;;;;4.47;4.17;;;;;;;21.26;76.55;94487.09;5096329;28;20447;-77
2023/08/01 01:56:22;;;;;;;9.00;4.70;;;;;;;21.25;76.74;94500.66;5096239;28;20487;-76
2023/08/01 01:58:49;;;;;;;5.00;4.10;;;;;;;21.28;76.59;94503.72;5096242;28;20438;-78
2023/08/01 02:01:16;;;;;;;4.20;3.90;;;;;;;21.24;76.38;94505.16;5095819;28;20958;-76
2023/08/01 02:03:42;;;;;;;4.50;4.20;;;;;;;21.31;76.45;94502.50;5096633;28;20437;-76
2023/08/01 02:06:09;;;;;;;5.07;3.90;;;;;;;21.30;76.49;94498.19;5043805;28;20450;-76
2023/08/01 02:08:36;;;;;;;5.03;3.83;;;;;;;21.27;76.40;94498.59;5042708;28;20445;-78
2023/08/01 02:11:05;;;;;;;4.93;4.43;;;;;;;21.26;76.59;94496.97;5096175;28;20448;-77
2023/08/01 02:13:34;;;;;;;4.50;4.17;;;;;;;21.29;76.39;94494.69;5095969;28;20432;-78
2023/08/01 02:16:00;;;;;;;5.13;4.67;;;;;;;21.26;76.18;94496.97;5095338;28;21011;-76
2023/08/01 02:18:27;;;;;;;4.10;3.70;;;;;;;21.25;76.37;94496.13;5095730;28;20453;-75
2023/08/01 02:20:54;;;;;;;6.50;4.43;;;;;;;21.25;76.69;94501.47;5095657;28;20931;-76
2023/08/01 02:23:21;;;;;;;3.83;3.60;;;;;;;21.22;76.75;94506.38;5095701;28;20446;-75
2023/08/01 02:25:48;;;;;;;4.70;4.30;;;;;;;21.12;77.20;94498.78;5095245;28;20454;-76
2023/08/01 02:28:14;;;;;;;5.30;4.80;;;;;;;21.15;76.94;94501.03;5043539;28;20434;-76
2023/08/01 02:30:43;;;;;;;4.70;4.30;;;;;;;21.10;77.46;94508.00;5095627;28;20433;-76
2023/08/01 02:33:09;;;;;;;4.90;4.50;;;;;;;21.08;77.62;94504.72;5095434;28;20777;-76
2023/08/01 02:35:36;;;;;;;4.97;4.40;;;;;;;21.02;77.85;94501.84;5095225;28;20494;-76
2023/08/01 02:38:04;;;;;;;4.47;4.07;;;;;;;20.99;77.97;94502.25;5095859;28;20458;-76
2023/08/01 02:40:30;;;;;;;5.30;4.47;;;;;;;20.91;78.90;94491.78;5095333;28;20966;-76
2023/08/01 02:42:57;;;;;;;5.10;4.60;;;;;;;20.95;78.55;94495.69;5095692;28;20438;-76
2023/08/01 02:45:26;;;;;;;3.90;3.60;;;;;;;20.96;78.48;94499.16;5095861;28;20468;-76
2023/08/01 02:47:54;;;;;;;4.80;4.40;;;;;;;20.92;77.91;94496.09;5095320;28;20448;-76
2023/08/01 02:50:21;;;;;;;5.00;4.60;;;;;;;20.89;78.09;94503.69;5095391;28;20480;-76
2023/08/01 02:52:47;;;;;;;4.57;4.17;;;;;;;20.81;78.42;94499.31;5095344;28;20932;-76
2023/08/01 02:55:14;;;;;;;4.10;3.80;;;;;;;20.78;78.69;94497.06;5095260;28;20491;-76
2023/08/01 02:57:41;;;;;;;4.80;4.23;;;;;;;20.71;79.16;94493.56;5095386;28;20440;-76
2023/08/01 03:00:11;;;;;;;5.00;4.60;;;;;;;20.66;79.15;94491.53;5095218;28;20461;-76
2023/08/01 03:02:38;;;;;;;4.70;4.40;;;;;;;20.57;79.37;94497.25;5095183;28;20523;-76
2023/08/01 03:05:08;;;;;;;4.60;4.20;;;;;;;20.50;79.84;94497.19;5095145;28;20949;-76
2023/08/01 03:07:34;;;;;;;5.10;4.60;;;;;;;20.40;80.17;94497.59;5094944;28;20444;-76
2023/08/01 03:10:01;;;;;;;4.37;3.97;;;;;;;20.35;80.54;94497.34;5094893;28;20443;-76
2023/08/01 03:12:28;;;;;;;5.23;4.83;;;;;;;20.39;80.21;94495.09;5095526;28;20460;-76
2023/08/01 03:14:55;;;;;;;4.47;4.17;;;;;;;20.43;79.99;94496.38;5095254;28;20441;-76
2023/08/01 03:17:22;;;;;;;5.47;4.97;;;;;;;20.39;80.23;94497.75;5094965;28;20451;-76
2023/08/01 03:19:49;;;;;;;5.40;4.20;;;;;;;20.41;80.03;94499.22;5090759;28;21151;-76
2023/08/01 03:22:18;;;;;;;5.20;4.80;;;;;;;20.41;79.83;94498.41;5094778;28;20523;-76
2023/08/01 03:24:45;;;;;;;8.00;4.97;;;;;;;20.40;80.12;94496.78;5098109;28;20446;-76
2023/08/01 03:27:11;;;;;;;5.60;4.43;;;;;;;20.40;80.00;94502.09;5100854;28;20498;-76
2023/08/01 03:29:39;;;;;;;4.80;4.40;;;;;;;20.44;80.04;94499.84;5098018;28;20450;-76
2023/08/01 03:32:06;;;;;;;4.37;3.97;;;;;;;20.44;79.65;94499.84;5094535;28;20448;-76
2023/08/01 03:34:33;;;;;;;4.57;4.23;;;;;;;20.48;79.95;94503.75;5094711;28;20493;-76
2023/08/01 03:37:00;;;;;;;4.70;4.30;;;;;;;20.51;79.41;94511.34;5094811;28;20484;-76
2023/08/01 03:39:28;;;;;;;5.00;4.70;;;;;;;20.51;79.43;94511.34;5094256;28;20436;-76
2023/08/01 03:41:55;;;;;;;4.87;4.47;;;;;;;20.48;79.47;94515.25;5094302;28;20451;-77
2023/08/01 03:44:21;;;;;;;4.50;4.10;;;;;;;20.49;79.27;94524.06;5094297;28;20518;-76
2023/08/01 03:46:48;;;;;;;4.47;3.70;;;;;;;20.54;78.78;94525.13;5094340;28;20506;-76
2023/08/01 03:49:15;;;;;;;4.77;4.37;;;;;;;20.13;81.24;94527.78;5093792;28;20478;-76
2023/08/01 03:51:42;;;;;;;5.10;4.70;;;;;;;19.73;84.02;94538.22;5093722;28;20906;-76
2023/08/01 03:54:08;;;;;;;6.73;6.23;;;;;;;19.63;86.06;94526.25;5042271;28;20458;-76
2023/08/01 03:56:39;;;;;;;8.07;6.27;;;;;;;19.70;86.95;94522.63;5094010;28;20487;-76
2023/08/01 03:59:05;;;;;;;6.40;5.80;;;;;;;19.78;87.28;94525.13;5059031;28;20526;-76
2023/08/01 04:01:32;;;;;;;7.77;6.20;;;;;;;19.88;86.87;94535.41;5094042;28;20438;-76
2023/08/01 04:03:59;;;;;;;5.30;4.90;;;;;;;20.31;85.73;94530.75;5093249;28;20440;-76
2023/08/01 04:06:26;;;;;;;5.67;5.17;;;;;;;21.07;82.63;94535.09;5093748;28;20451;-76
2023/08/01 04:08:52;;;;;;;6.10;5.50;;;;;;;21.56;79.14;94527.56;5093537;28;20446;-76
2023/08/01 04:11:19;;;;;;;8.07;5.97;;;;;;;22.01;77.46;94529.56;5093497;28;20941;-76
2023/08/01 04:13:47;;;;;;;7.67;5.57;;;;;;;22.38;75.65;94533.38;5093483;28;20470;-76
2023/08/01 04:16:14;;;;;;;10.83;5.63;;;;;;;22.71;73.81;94538.59;5053731;28;20488;-76
2023/08/01 04:18:44;;;;;;;7.07;6.47;;;;;;;23.11;72.88;94541.88;5071334;28;20971;-76
2023/08/01 04:21:10;;;;;;;6.97;5.93;;;;;;;23.60;70.86;94535.81;5073690;28;20435;-76
2023/08/01 04:23:37;;;;;;;7.00;6.30;;;;;;;24.02;68.96;94534.19;5072745;28;20444;-75
2023/08/01 04:26:06;;;;;;;6.27;5.73;;;;;;;24.51;67.86;94545.03;5073292;28;20848;-78
2023/08/01 04:28:32;;;;;;;6.33;5.73;;;;;;;25.02;66.18;94544.63;5073864;28;20539;-78
2023/08/01 04:31:01;;;;;;;6.53;5.50;;;;;;;25.56;62.63;94540.09;5038078;28;20457;-78
2023/08/01 04:33:28;;;;;;;6.83;6.13;;;;;;;25.81;60.84;94539.94;5077253;28;20927;-77
2023/08/01 04:35:55;;;;;;;9.53;6.63;;;;;;;25.94;60.20;94547.78;5077952;28;20487;-78
2023/08/01 04:38:21;;;;;;;6.13;5.57;;;;;;;26.07;60.13;94535.97;5077430;28;20452;-78
2023/08/01 04:40:48;;;;;;;5.63;5.23;;;;;;;26.19;59.47;94547.53;5077351;28;20441;-78
2023/08/01 04:43:15;;;;;;;7.07;6.47;;;;;;;26.25;58.87;94525.06;5077768;28;20440;-77
2023/08/01 04:45:42;;;;;;;5.53;5.07;;;;;;;26.50;59.63;94539.09;5077496;28;20448;-78
2023/08/01 04:48:10;;;;;;;8.57;6.30;;;;;;;26.94;62.68;94538.66;5077417;28;20931;-78
2023/08/01 04:50:37;;;;;;;7.23;6.13;;;;;;;27.37;59.61;94538.13;5077603;28;20475;-78
2023/08/01 04:53:04;;;;;;;6.33;5.73;;;;;;;27.72;56.23;94541.44;5077261;28;20444;-79
2023/08/01 04:55:30;;;;;;;6.33;5.73;;;;;;;27.90;53.74;94532.31;5077226;28;20458;-79
2023/08/01 04:57:57;;;;;;;8.53;5.30;;;;;;;28.11;54.03;94536.16;5077244;28;20451;-79
2023/08/01 05:00:24;;;;;;;5.30;4.80;;;;;;;28.27;55.00;94531.78;5077035;28;20441;-78
2023/08/01 05:02:51;;;;;;;5.03;4.60;;;;;;;28.49;54.32;94529.13;5076793;28;20452;-78
2023/08/01 05:05:20;;;;;;;5.23;4.67;;;;;;;28.64;51.15;94527.47;5077213;28;20527;-78
2023/08/01 05:07:46;;;;;;;5.47;5.07;;;;;;;28.82;49.60;94529.00;5076538;28;20915;-78
2023/08/01 05:10:13;;;;;;;7.20;5.03;;;;;;;28.96;50.86;94530.31;5076574;28;20783;-78
2023/08/01 05:12:40;;;;;;;11.47;4.80;;;;;;;29.22;50.62;94525.19;5077093;28;20441;-78
2023/08/01 05:15:08;;;;;;;4.57;4.20;;;;;;;29.34;48.70;94533.13;5076704;28;20444;-78
2023/08/01 05:17:35;;;;;;;4.47;4.17;;;;;;;29.46;47.74;94529.22;5076577;28;20491;-78
2023/08/01 05:20:04;;;;;;;6.87;4.37;;;;;;;29.59;47.13;94536.09;5076482;28;20444;-77
2023/08/01 05:22:32;;;;;;;4.93;3.80;;;;;;;29.76;46.88;94528.66;5076500;28;20445;-78
2023/08/01 05:24:59;;;;;;;4.67;4.27;;;;;;;29.90;45.80;94534.47;5076550;28;20460;-76
2023/08/01 05:27:25;;;;;;;4.63;3.47;;;;;;;29.81;45.74;94528.72;5075769;28;20448;-77
2023/08/01 05:29:52;;;;;;;4.27;3.93;;;;;;;29.82;44.70;94533.06;5023187;28;20485;-78
2023/08/01 05:32:19;;;;;;;4.20;3.90;;;;;;;29.96;45.04;94522.59;5074880;28;20437;-77
2023/08/01 05:34:46;;;;;;;4.27;3.97;;;;;;;29.97;45.60;94528.84;5076306;28;20436;-83
2023/08/01 05:37:12;;;;;;;5.00;4.47;;;;;;;29.93;45.71;94525.84;5023034;28;20491;-83
2023/08/01 05:39:41;;;;;;;4.80;3.07;;;;;;;29.88;42.80;94525.81;5074947;28;20440;-80
2023/08/01 05:42:09;;;;;;;3.83;3.40;;;;;;;29.51;43.06;94517.66;5087262;28;20451;-78
2023/08/01 05:44:36;;;;;;;3.87;3.50;;;;;;;29.39;43.26;94522.34;5093775;28;20432;-78
2023/08/01 05:47:02;;;;;;;7.00;3.53;;;;;;;29.42;44.66;94528.06;5094989;28;20443;-78
2023/08/01 05:49:29;;;;;;;3.57;3.30;;;;;;;29.36;43.21;94531.81;5058929;28;20504;-79
2023/08/01 05:51:56;;;;;;;4.13;3.70;;;;;;;29.42;44.01;94528.06;5094304;28;20934;-79
2023/08/01 05:54:23;;;;;;;6.87;4.23;;;;;;;29.16;43.84;94526.19;5094247;28;20943;-79
2023/08/01 05:56:51;;;;;;;3.47;3.17;;;;;;;29.20;43.92;94524.59;5042011;28;20476;-78
2023/08/01 05:59:19;;;;;;;3.37;3.17;;;;;;;29.17;44.39;94525.09;5094520;28;20457;-78
2023/08/01 06:01:46;;;;;;;4.77;4.37;;;;;;;28.12;45.54;94520.78;5094086;28;20440;-78
2023/08/01 06:04:13;;;;;;;3.87;3.57;;;;;;;28.43;45.81;94522.84;5094774;28;20440;-78
2023/08/01 06:06:40;;;;;;;12.27;4.90;;;;;;;28.63;44.80;94516.91;5094498;28;20969;-78
2023/08/01 06:09:07;;;;;;;4.13;3.73;;;;;;;28.87;44.56;94518.28;5042527;28;20443;-78
2023/08/01 06:11:34;;;;;;;3.70;3.40;;;;;;;28.96;44.14;94519.50;5094898;28;20460;-76
2023/08/01 06:14:02;;;;;;;3.67;3.30;;;;;;;28.85;43.80;94517.72;5094583;28;20451;-76
2023/08/01 06:16:29;;;;;;;5.90;4.00;;;;;;;28.41;45.16;94524.19;5094440;28;20823;-79
2023/08/01 06:18:57;;;;;;;5.93;3.70;;;;;;;28.57;44.98;94526.00;5094380;28;20475;-78
2023/08/01 06:21:24;;;;;;;4.63;3.33;;;;;;;28.60;44.95;94520.91;5094463;28;20473;-77
2023/08/01 06:23:50;;;;;;;3.90;3.60;;;;;;;28.62;44.81;94510.69;5094591;28;20440;-78
2023/08/01 06:26:17;;;;;;;4.80;4.10;;;;;;;28.69;43.94;94510.50;5094832;28;20432;-78
2023/08/01 06:28:44;;;;;;;5.40;3.30;;;;;;;28.82;43.79;94515.50;5094245;28;20440;-78
2023/08/01 06:31:12;;;;;;;5.30;3.50;;;;;;;29.09;43.42;94515.56;5094095;28;20448;-79
2023/08/01 06:33:39;;;;;;;4.30;3.13;;;;;;;29.26;42.52;94505.50;5094148;28;20444;-78
2023/08/01 06:36:06;;;;;;;7.63;3.70;;;;;;;29.37;42.61;94506.41;5094061;28;20461;-78
2023/08/01 06:38:33;;;;;;;10.33;5.70;;;;;;;29.36;45.32;94506.66;5094202;28;20468;-78
2023/08/01 06:41:00;;;;;;;4.83;4.43;;;;;;;29.28;46.25;94497.13;5093656;28;20436;-78
2023/08/01 06:43:27;;;;;;;7.20;5.30;;;;;;;28.91;45.68;94495.13;5094347;28;20452;-78
2023/08/01 06:45:53;;;;;;;7.90;5.10;;;;;;;28.20;48.15;94496.88;5042008;28;20439;-79
2023/08/01 06:48:22;;;;;;;15.43;5.30;;;;;;;28.62;47.01;94502.59;5092899;28;20428;-77
2023/08/01 06:50:48;;;;;;;8.40;5.37;;;;;;;28.45;47.17;94506.41;5094546;28;20468;-77
2023/08/01 06:53:15;;;;;;;9.67;6.00;;;;;;;27.91;49.78;94504.28;5094994;28;20440;-77
2023/08/01 06:55:42;;;;;;;10.70;5.47;;;;;;;28.17;47.85;94500.06;5093941;28;20440;-79
2023/08/01 06:58:09;;;;;;;7.60;5.20;;;;;;;27.96;49.62;94492.75;5093783;28;21008;-79
2023/08/01 07:00:36;;;;;;;10.40;5.50;;;;;;;28.36;48.32;94504.16;5093207;28;20440;-78
2023/08/01 07:03:03;;;;;;;4.93;4.40;;;;;;;28.35;46.67;94505.22;5059280;28;20462;-78
2023/08/01 07:05:31;;;;;;;11.20;5.10;;;;;;;27.79;49.12;94505.44;5094937;28;20440;-79
2023/08/01 07:07:58;;;;;;;12.33;5.50;;;;;;;27.84;48.99;94495.53;5095238;28;20447;-78
2023/08/01 07:10:25;;;;;;;6.33;4.80;;;;;;;28.31;47.88;94504.06;5093357;28;20448;-79
2023/08/01 07:12:52;;;;;;;8.60;5.00;;;;;;;28.75;47.66;94493.28;5074444;28;20429;-79
2023/08/01 07:15:19;;;;;;;5.73;5.10;;;;;;;29.20;45.84;94502.97;5104930;28;20444;-79
2023/08/01 07:17:46;;;;;;;6.97;5.90;;;;;;;29.30;45.14;94493.09;5110340;28;20487;-78
2023/08/01 07:20:13;;;;;;;5.37;4.67;;;;;;;29.41;44.10;94490.47;5096047;28;21097;-76
2023/08/01 07:22:41;;;;;;;5.77;5.17;;;;;;;29.37;44.14;94487.47;5093185;28;20465;-75
2023/08/01 07:25:09;;;;;;;10.53;5.73;;;;;;;29.57;43.67;94482.28;5093061;28;20451;-74
2023/08/01 07:27:37;;;;;;;6.23;5.33;;;;;;;29.58;43.72;94486.63;5091214;28;20452;-75
2023/08/01 07:30:05;;;;;;;14.83;5.50;;;;;;;29.78;43.65;94483.25;5094008;28;20451;-75
2023/08/01 07:32:31;;;;;;;9.83;5.73;;;;;;;29.79;43.88;94482.19;5094124;28;20436;-75
2023/08/01 07:34:58;;;;;;;5.77;5.27;;;;;;;29.40;43.61;94476.16;5093990;28;20451;-76
2023/08/01 07:37:28;;;;;;;8.90;5.87;;;;;;;29.24;45.27;94483.31;5093678;28;20487;-76
2023/08/01 07:39:56;;;;;;;6.00;5.10;;;;;;;29.05;44.31;94483.91;5093768;28;20486;-76
2023/08/01 07:42:23;;;;;;;10.10;5.80;;;;;;;29.02;44.61;94476.31;5093965;28;20440;-76
2023/08/01 07:44:50;;;;;;;10.60;5.93;;;;;;;28.95;45.32;94480.03;5093632;28;20440;-77
2023/08/01 07:47:16;;;;;;;7.83;5.83;;;;;;;28.55;44.70;94471.44;5093737;28;20448;-76
2023/08/01 07:49:43;;;;;;;5.40;4.77;;;;;;;28.74;44.65;94472.75;5092996;28;20474;-76
2023/08/01 07:52:10;;;;;;;5.70;5.13;;;;;;;28.73;46.33;94478.41;5093349;28;20443;-76
2023/08/01 07:54:37;;;;;;;7.80;4.60;;;;;;;29.10;46.06;94481.25;5093992;28;20436;-76
2023/08/01 07:57:06;;;;;;;5.60;4.73;;;;;;;29.48;44.50;94473.00;5093911;28;20490;-76
2023/08/01 07:59:33;;;;;;;11.03;5.90;;;;;;;29.42;44.19;94484.81;5092923;28;20431;-76
2023/08/01 08:02:00;;;;;;;6.67;5.23;;;;;;;29.09;44.97;94479.63;5092283;28;20451;-76
2023/08/01 08:04:27;;;;;;;6.70;4.90;;;;;;;28.78;45.96;94481.16;5040472;28;20440;-76
2023/08/01 08:06:54;;;;;;;8.50;4.57;;;;;;;29.11;44.76;94467.50;5091261;28;20450;-76
2023/08/01 08:09:22;;;;;;;5.00;4.60;;;;;;;29.34;43.66;94465.53;5056933;28;20522;-76
2023/08/01 08:11:50;;;;;;;5.97;4.60;;;;;;;29.47;42.90;94470.53;5092091;28;20543;-76
2023/08/01 08:14:20;;;;;;;5.27;4.77;;;;;;;29.54;41.81;94471.97;5092667;28;20439;-76
2023/08/01 08:16:47;;;;;;;8.93;4.70;;;;;;;29.25;43.12;94467.91;5090846;28;20849;-76
2023/08/01 08:19:14;;;;;;;4.13;3.83;;;;;;;29.31;43.20;94466.88;5040159;28;20445;-77
2023/08/01 08:21:40;;;;;;;8.60;4.50;;;;;;;29.50;42.19;94465.47;5091973;28;20435;-76
2023/08/01 08:24:07;;;;;;;7.70;4.37;;;;;;;29.59;42.11;94453.09;5091987;28;20459;-76
2023/08/01 08:26:37;;;;;;;6.13;4.30;;;;;;;29.11;42.73;94451.28;5092198;28;20455;-76
2023/08/01 08:29:04;;;;;;;4.37;3.87;;;;;;;29.49;42.70;94449.47;5091955;28;20449;-77
2023/08/01 08:31:33;;;;;;;5.13;3.90;;;;;;;29.63;42.13;94449.88;5091822;28;20530;-76
2023/08/01 08:33:59;;;;;;;12.43;4.50;;;;;;;29.82;41.30;94446.50;5091888;28;20518;-76
2023/08/01 08:36:26;;;;;;;4.90;4.43;;;;;;;30.00;40.49;94445.25;5091793;28;20440;-76
2023/08/01 08:38:54;;;;;;;5.03;4.40;;;;;;;30.27;41.04;94445.16;5091930;28;20491;-76
2023/08/01 08:41:22;;;;;;;5.30;4.53;;;;;;;30.40;39.58;94435.75;5091970;28;20443;-76
2023/08/01 08:43:50;;;;;;;5.90;4.63;;;;;;;30.19;40.70;94441.06;5091786;28;20447;-77
2023/08/01 08:46:17;;;;;;;5.30;4.60;;;;;;;30.27;41.16;94431.63;5091709;28;20479;-76
2023/08/01 08:48:47;;;;;;;4.37;3.80;;;;;;;30.35;40.22;94422.16;5091578;28;20447;-76
2023/08/01 08:51:14;;;;;;;8.17;4.30;;;;;;;30.34;39.92;94415.13;5092007;28;20530;-76
2023/08/01 08:53:42;;;;;;;4.73;3.77;;;;;;;30.49;40.43;94424.13;5092073;28;20451;-77
2023/08/01 08:56:10;;;;;;;6.33;5.60;;;;;;;30.66;39.95;94418.56;5092107;28;20824;-77
2023/08/01 08:58:38;;;;;;;6.17;4.50;;;;;;;30.74;39.06;94423.44;5091798;28;20519;-76
2023/08/01 09:01:08;;;;;;;8.30;5.43;;;;;;;30.63;40.22;94420.94;5091616;28;20867;-76
2023/08/01 09:03:34;;;;;;;8.57;4.70;;;;;;;30.68;38.75;94419.09;5091417;28;20443;-76
2023/08/01 09:06:08;;;;;;;5.70;4.50;;;;;;;30.65;39.79;94422.34;5091584;28;20431;-77
2023/08/01 09:08:37;;;;;;;7.07;4.60;;;;;;;30.62;39.39;94406.59;5091829;28;20444;-76
2023/08/01 09:11:04;;;;;;;6.67;5.17;;;;;;;30.70;39.58;94410.69;5038922;28;21017;-76
2023/08/01 09:13:31;;;;;;;6.47;4.40;;;;;;;30.73;39.18;94413.69;5091395;28;20927;-76
2023/08/01 09:15:58;;;;;;;4.23;3.87;;;;;;;30.73;39.77;94408.28;5091179;28;20439;-76
2023/08/01 09:18:25;;;;;;;4.23;3.80;;;;;;;30.48;39.73;94408.16;5093208;28;21131;-76
2023/08/01 09:20:52;;;;;;;4.40;4.00;;;;;;;30.15;40.85;94396.66;5095631;28;20450;-77
2023/08/01 09:23:21;;;;;;;5.07;4.50;;;;;;;29.82;41.28;94399.69;5095397;28;20440;-77
2023/08/01 09:25:47;;;;;;;6.03;5.10;;;;;;;30.05;41.50;94393.88;5095285;28;20482;-77
2023/08/01 09:28:18;;;;;;;4.37;3.90;;;;;;;29.73;42.02;94399.34;5095038;28;20447;-76
2023/08/01 09:30:54;;;;;;;5.23;4.73;;;;;;;29.10;43.86;94394.78;5094801;28;20439;-76
2023/08/01 09:33:21;;;;;;;4.40;4.10;;;;;;;28.97;44.41;94394.16;5094931;28;20434;-76
2023/08/01 09:35:50;;;;;;;5.30;4.80;;;;;;;29.03;44.68;94389.59;5094994;28;20455;-76
2023/08/01 09:38:17;;;;;;;4.40;4.00;;;;;;;28.77;43.65;94395.81;5094698;28;20510;-76
2023/08/01 09:40:46;;;;;;;5.07;4.40;;;;;;;28.94;43.68;94391.16;5094647;28;20443;-77
2023/08/01 09:43:14;;;;;;;5.30;4.80;;;;;;;29.09;43.68;94382.34;5094758;28;20440;-76
2023/08/01 09:45:51;;;;;;;7.77;5.10;;;;;;;29.41;43.29;94387.75;5094843;28;20941;-77
2023/08/01 09:48:24;;;;;;;7.83;4.40;;;;;;;29.52;43.23;94379.50;5094592;28;20475;-76
2023/08/01 09:50:51;;;;;;;5.60;5.00;;;;;;;29.26;44.02;94372.25;5094697;28;20521;-76
2023/08/01 09:53:17;;;;;;;8.97;4.47;;;;;;;29.40;43.63;94373.41;5094865;28;20443;-77
2023/08/01 09:55:49;;;;;;;4.20;3.90;;;;;;;29.50;43.62;94372.72;5094489;28;20846;-77
2023/08/01 09:58:21;;;;;;;5.13;4.70;;;;;;;29.69;42.89;94373.09;5094671;28;20483;-77
2023/08/01 10:00:50;;;;;;;4.10;3.70;;;;;;;29.56;43.58;94356.25;5094476;28;20443;-77
2023/08/01 10:03:18;;;;;;;7.67;4.20;;;;;;;29.72;43.77;94356.34;5094461;28;20450;-77
2023/08/01 10:05:45;;;;;;;4.43;4.00;;;;;;;29.80;42.93;94348.56;5094249;28;20539;-78
2023/08/01 10:08:13;;;;;;;6.00;5.00;;;;;;;29.78;42.88;94341.75;5094334;28;20443;-77
2023/08/01 10:10:41;;;;;;;10.10;5.70;;;;;;;29.70;43.22;94342.25;5094213;28;20956;-77
2023/08/01 10:13:13;;;;;;;8.20;5.10;;;;;;;29.58;43.14;94343.28;5094089;28;20454;-77
2023/08/01 10:15:41;;;;;;;7.80;5.40;;;;;;;29.48;43.83;94337.78;5094064;28;20810;-77
2023/08/01 10:18:09;;;;;;;6.00;5.40;;;;;;;28.84;44.30;94324.28;5094144;28;20487;-77
2023/08/01 10:20:38;;;;;;;11.33;5.30;;;;;;;29.00;44.48;94325.28;5093996;28;20479;-77
2023/08/01 10:23:07;;;;;;;6.30;5.70;;;;;;;28.92;44.41;94334.69;5094088;28;20439;-78
2023/08/01 10:25:34;;;;;;;6.87;5.43;;;;;;;28.73;44.02;94329.88;5094099;28;20436;-77
2023/08/01 10:28:01;;;;;;;7.20;4.87;;;;;;;28.83;43.97;94319.97;5041900;28;20439;-76
2023/08/01 10:30:30;;;;;;;5.60;5.10;;;;;;;29.04;43.64;94322.88;5092797;28;20463;-77
2023/08/01 10:32:59;;;;;;;5.10;4.70;;;;;;;29.17;43.37;94319.72;5093543;28;20926;-77
2023/08/01 10:35:38;;;;;;;7.93;4.90;;;;;;;29.44;42.89;94315.06;5093680;28;20444;-77
2023/08/01 10:38:06;;;;;;;8.20;4.80;;;;;;;29.54;41.97;94312.44;5093833;28;20839;-77
2023/08/01 10:40:37;;;;;;;7.23;5.40;;;;;;;29.67;42.97;94308.44;5093844;28;20961;-77
2023/08/01 10:43:04;;;;;;;6.17;5.40;;;;;;;29.69;41.39;94300.88;5093737;28;20812;-76
2023/08/01 10:45:33;;;;;;;5.60;5.20;;;;;;;29.69;41.66;94297.34;5093556;28;20439;-77
2023/08/01 10:48:17;;;;;;;6.07;5.47;;;;;;;29.74;42.64;94298.19;5093493;28;20470;-77
2023/08/01 10:50:55;;;;;;;7.60;4.80;;;;;;;29.52;41.05;94298.38;5093391;28;20463;-77
2023/08/01 10:53:22;;;;;;;6.00;5.50;;;;;;;29.43;41.72;94291.78;5094082;28;20424;-77
2023/08/01 10:55:49;;;;;;;5.90;5.10;;;;;;;29.44;42.33;94292.59;5093835;28;20440;-77
2023/08/01 10:58:16;;;;;;;6.60;5.47;;;;;;;29.67;42.10;94280.59;5093552;28;20492;-77
2023/08/01 11:00:44;;;;;;;5.83;4.93;;;;;;;29.94;42.01;94286.66;5093452;28;20444;-77
2023/08/01 11:03:11;;;;;;;6.30;5.70;;;;;;;29.72;42.57;94286.81;5041015;28;20435;-76
2023/08/01 11:05:38;;;;;;;9.10;5.00;;;;;;;29.58;42.10;94283.78;5093562;28;21180;-77
2023/08/01 11:08:05;;;;;;;8.27;4.20;;;;;;;29.54;42.32;94279.19;5093286;28;20444;-77
2023/08/01 11:10:33;;;;;;;6.37;5.27;;;;;;;29.60;42.98;94276.22;5093393;28;20452;-77
2023/08/01 11:13:01;;;;;;;15.90;5.30;;;;;;;29.61;42.75;94266.22;5094670;28;20448;-77
2023/08/01 11:15:27;;;;;;;6.93;5.30;;;;;;;29.42;42.28;94268.53;5104899;28;20444;-77
2023/08/01 11:17:56;;;;;;;8.40;5.30;;;;;;;29.57;41.65;94265.94;5107173;28;20493;-77
2023/08/01 11:20:25;;;;;;;6.90;5.23;;;;;;;29.78;42.01;94260.59;5093397;28;20454;-77
2023/08/01 11:22:54;;;;;;;6.70;5.13;;;;;;;29.72;42.10;94258.97;5092957;28;20436;-77
2023/08/01 11:25:32;;;;;;;11.77;5.23;;;;;;;30.02;41.74;94250.13;5092588;28;20451;-77
2023/08/01 11:28:03;;;;;;;9.07;5.27;;;;;;;30.17;41.83;94248.34;5092830;28;20476;-77
2023/08/01 11:30:32;;;;;;;7.77;5.27;;;;;;;30.23;40.41;94245.63;5040640;28;20444;-77
2023/08/01 11:33:02;;;;;;;6.40;5.90;;;;;;;29.95;42.17;94249.59;5093166;28;20444;-77